AirNav   Phillips 66 Aviation Fuel
 
 403 users online  

UT14 Brigham City Community Hospital Heliport
Brigham City, Utah, USA

GOING TO BRIGHAM CITY?


FAA INFORMATION EFFECTIVE 04 JANUARY 2018

Location

FAA Identifier: UT14
Lat/Long: 41-29-31.0700N / 112-01-35.1100W
41-29.517833N / 112-01.585167W
41.4919639 / -112.0264194
(estimated)
Elevation: 4308 ft. / 1313 m (estimated)
Variation: 15E (1990)
Time zone: UTC -7 (UTC -6 during Daylight Saving Time)
Zip code: 84302

Heliport Operations

Heliport use: Private use, MEDICAL USE.
Activation date: 12/1992
Control tower: no
ARTCC: SALT LAKE CITY CENTER
FSS: CEDAR CITY FLIGHT SERVICE STATION
Attendance: UNATNDD
Segmented circle: no

Heliport Communications

WX AWOS-3 at BMC (4 nm NW): 135.075 (435-723-3852)
WX ASOS at OGD (18 nm S): PHONE 801-622-5600
WX ASOS at LGU (20 nm NE): 135.275 (435-752-6941)

Nearby radio navigation aids

VOR radial/distance  VOR name  Freq  Var
OGDr357/16.4OGDEN VORTAC115.7014E
LHOr168/18.1BRIGHAM CITY VOR/DME112.9014E
TCHr341/38.6WASATCH VORTAC116.8016E

Heliport Services

Runway Information

Helipad H1

Dimensions: 60 x 60 ft. / 18 x 18 m
Surface: concrete
Latitude: 41-29.517833N
Longitude: 112-01.585167W
Elevation: 4308.0 ft.
Traffic pattern: leftleft

Heliport Ownership and Management from official FAA records

Ownership: Privately-owned
Owner: BRIGHAM CITY COMMUNITY HOSP
950 SOUTH 500 WEST
BRIGHAM CITY, UT 84302
Phone 435-734-9471
Manager: RICHARD SPUHLER, CEO
950 SOUTH 500 WEST
BRIGHAM CITY, UT 84302
Phone 435-734-9471

Additional Remarks

A52-H1 24 FT POLE 111 FT SOUTH; 70 FT ANT 300 FT SE; 18 FT BLDG 141 FT SW; 14 FT BLDG 141 FT EAST OF HELIPAD.

Instrument Procedures

There are no published instrument procedures at UT14.

Some nearby airports with instrument procedures:

KBMC - Brigham City Airport (4 nm NW)
KOGD - Ogden-Hinckley Airport (18 nm S)
KLGU - Logan-Cache Airport (20 nm NE)
KHIF - Hill Air Force Base (22 nm S)
KSLC - Salt Lake City International Airport (42 nm S)
 
Loc | Ops | Rwys | IFR | FBO | Links
Com | Nav | Svcs | Stats | Notes


 
Area around UT14 (Brigham City Community Hospital Heliport)
 
Road maps at: MapQuest Bing Google
 
Aerial photo
No photo
 
Sectional chart

 
Airport distance calculator
Flying to Brigham City Community Hospital Heliport? Find the distance to fly.

From to UT14

Sunrise and sunset
Times for 20-Jan-2018
 Local
(UTC-7)
 Zulu
(UTC)
Morning civil twilight07:2014:20
Sunrise07:5114:51
Sunset17:2800:28
Evening civil twilight17:5800:58

Current date and time
Zulu (UTC)  20-Jan-2018 11:59:52
Local (UTC-7)  20-Jan-2018 04:59:52
 
METAR
KBMC 
4nm NW 
201135Z AUTO 32003KT 10SM OVC060 00/M02 A2992 RMK AO1 T10041020
KOGD 
18nm S 
201153Z AUTO 35007KT 10SM OVC044 M01/M03 A2987 RMK AO2 SLP125 60000 70008 T10111028 11006 21011 58012
KLGU 
19nm NE 
201151Z AUTO 00000KT 10SM OVC070 M01/M03 A2992 RMK AO2 SLP142 60000 7//// T10111028 10011 21011 55003
TAF
KOGD 
18nm S 
200549Z 2006/2106 34011KT 3SM -SN BR SCT007 BKN015 FM200900 34005KT 6SM -SHSN SCT015 BKN030 FM201700 34010KT 6SM -SHSN SCT020 BKN030 FM202300 32013KT P6SM VCSH SCT030 BKN050
KLGU 
19nm NE 
200743Z 2008/2106 13004KT 6SM -SHSN SCT010 BKN050 FM201500 35006KT 6SM BR VCSH SCT010 BKN050 FM202300 35004KT P6SM SCT040 BKN070
NOTAMs
Click for the latest NOTAMs
NOTAMs are issued by the DoD/FAA and will open in a separate window not controlled by AirNav.

 

 
 

Would you like to see your business listed on this page?

 If your business provides an interesting product or service to pilots, flight crews, aircraft, or users of the Brigham City Community Hospital Heliport, you should consider listing it here.  To start the listing process, click on the button below
 
Add a business
 

Other Pages about Brigham City Community Hospital Heliport

Update a link
 
Copyright © AirNav, LLC. All rights reserved. Privacy Policy  Contact